Time;durP1;ratioP1;P1;durP2;ratioP2;P2;SDS_P1;SDS_P2;PMS_P1;PMS_P2;Temp;Humidity;BMP_temperature;BMP_pressure;BME280_temperature;BME280_humidity;BME280_pressure;Samples;Min_cycle;Max_cycle;Signal;HPM_P1;HPM_P2
2022/03/16 06:00:42;;;;;;;44.97;40.03;;;11.70;97.20;;;;;;1701101;29;20184;-77
2022/03/16 06:01:33;;;;;;;46.13;39.67;;;11.70;97.20;;;;;;1701031;29;20242;-77
2022/03/16 06:02:25;;;;;;;45.57;40.40;;;11.70;97.20;;;;;;1701075;29;20206;-78
2022/03/16 06:03:15;;;;;;;43.33;38.65;;;11.70;97.20;;;;;;1700940;29;20683;-78
2022/03/16 06:04:07;;;;;;;47.07;40.03;;;11.70;97.20;;;;;;1700592;29;20721;-77
2022/03/16 06:04:58;;;;;;;46.13;40.45;;;11.70;97.20;;;;;;1697891;29;20246;-77
2022/03/16 06:05:50;;;;;;;46.67;41.67;;;11.70;97.20;;;;;;1700677;29;20210;-78
2022/03/16 06:06:40;;;;;;;44.22;39.00;;;11.60;97.20;;;;;;1700770;29;20577;-78
2022/03/16 06:07:32;;;;;;;45.40;40.40;;;11.60;97.20;;;;;;1700968;29;20313;-77
2022/03/16 06:08:23;;;;;;;44.28;38.97;;;11.70;97.20;;;;;;1700561;29;20733;-77
2022/03/16 06:09:14;;;;;;;45.40;40.50;;;11.60;97.20;;;;;;1700838;29;20569;-77
2022/03/16 06:10:07;;;;;;;45.65;40.45;;;11.60;97.20;;;;;;1700465;29;20659;-78
2022/03/16 06:10:58;;;;;;;45.33;40.38;;;11.60;97.20;;;;;;1693920;29;20571;-77
2022/03/16 06:11:49;;;;;;;45.00;39.30;;;11.60;97.20;;;;;;1694482;29;20262;-78
2022/03/16 06:12:52;;;;;;;43.70;38.67;;;11.60;97.20;;;;;;1694291;29;20203;-77
2022/03/16 06:13:43;;;;;;;48.45;42.00;;;11.60;97.20;;;;;;1694167;29;20208;-77
2022/03/16 06:14:34;;;;;;;46.22;40.28;;;11.60;97.20;;;;;;1694548;29;20666;-77
2022/03/16 06:15:28;;;;;;;45.93;40.93;;;11.70;97.20;;;;;;1694440;29;20207;-78
2022/03/16 06:16:20;;;;;;;47.40;42.30;;;11.70;97.20;;;;;;1694553;29;20236;-78
2022/03/16 06:17:11;;;;;;;45.85;40.45;;;11.70;97.20;;;;;;1694503;29;20207;-78
2022/03/16 06:18:02;;;;;;;45.53;39.65;;;11.70;97.20;;;;;;1694191;29;20298;-78
2022/03/16 06:18:54;;;;;;;45.78;38.75;;;11.70;97.20;;;;;;1694555;29;20218;-78
2022/03/16 06:19:45;;;;;;;49.55;41.53;;;11.70;97.20;;;;;;1700191;29;20548;-77
2022/03/16 06:20:37;;;;;;;45.70;40.10;;;11.70;97.20;;;;;;1700866;29;20225;-76
2022/03/16 06:21:28;;;;;;;47.58;41.42;;;11.70;97.20;;;;;;1700885;29;20207;-76
2022/03/16 06:22:21;;;;;;;46.00;40.80;;;11.70;97.20;;;;;;1700827;29;20207;-77
2022/03/16 06:23:12;;;;;;;45.05;40.20;;;11.70;97.20;;;;;;1700945;29;20682;-77
2022/03/16 06:24:04;;;;;;;45.92;40.35;;;11.70;97.20;;;;;;1700822;29;20694;-77
2022/03/16 06:24:55;;;;;;;47.97;41.38;;;11.70;97.20;;;;;;1701103;29;20216;-78
2022/03/16 06:25:47;;;;;;;46.73;40.43;;;11.70;97.20;;;;;;1700841;29;20294;-77
2022/03/16 06:26:38;;;;;;;53.90;42.15;;;11.70;97.20;;;;;;1700963;29;20678;-78
2022/03/16 06:27:29;;;;;;;46.97;40.80;;;11.70;97.20;;;;;;1700083;29;20726;-77
2022/03/16 06:28:20;;;;;;;48.45;42.22;;;11.70;97.20;;;;;;1700412;29;20239;-77
2022/03/16 06:29:12;;;;;;;43.33;38.43;;;11.70;97.20;;;;;;1700865;29;20214;-77
2022/03/16 06:30:04;;;;;;;47.30;40.38;;;11.70;97.20;;;;;;1700714;29;20218;-77
2022/03/16 06:30:56;;;;;;;49.90;40.85;;;11.70;97.20;;;;;;1700634;29;20207;-76
2022/03/16 06:31:48;;;;;;;48.33;41.75;;;11.70;97.20;;;;;;1700582;29;20234;-76
2022/03/16 06:32:40;;;;;;;49.22;40.92;;;11.70;97.20;;;;;;1700728;29;20211;-77
2022/03/16 06:33:30;;;;;;;50.72;42.42;;;11.70;97.20;;;;;;1700720;29;20209;-76
2022/03/16 06:34:22;;;;;;;49.97;42.90;;;11.70;97.20;;;;;;1700541;29;20225;-77
2022/03/16 06:35:13;;;;;;;49.55;42.80;;;11.70;97.20;;;;;;1697130;29;20207;-76
2022/03/16 06:36:05;;;;;;;51.78;43.00;;;11.70;97.20;;;;;;1698498;29;20234;-76
2022/03/16 06:36:56;;;;;;;52.55;43.33;;;11.70;97.20;;;;;;1698667;29;20227;-76
2022/03/16 06:37:48;;;;;;;49.43;42.10;;;11.70;97.20;;;;;;1698571;29;20196;-76
2022/03/16 06:38:38;;;;;;;47.83;40.20;;;11.70;97.20;;;;;;1698421;29;20264;-76
2022/03/16 06:39:30;;;;;;;53.00;41.00;;;11.70;97.20;;;;;;1698442;29;20203;-77
2022/03/16 06:40:21;;;;;;;52.50;41.22;;;11.70;97.20;;;;;;1698703;29;20207;-77
2022/03/16 06:41:13;;;;;;;50.90;44.20;;;11.70;97.20;;;;;;1698935;29;20655;-77
2022/03/16 06:42:04;;;;;;;51.75;43.03;;;11.70;97.20;;;;;;1697948;29;20451;-77
2022/03/16 06:42:57;;;;;;;46.90;40.90;;;11.70;97.20;;;;;;1699197;29;20287;-77
2022/03/16 06:43:48;;;;;;;48.85;41.63;;;11.80;97.20;;;;;;1698644;29;20210;-77
2022/03/16 06:44:40;;;;;;;56.30;41.92;;;11.80;97.20;;;;;;1698661;29;20204;-77
2022/03/16 06:45:31;;;;;;;51.92;43.10;;;11.80;97.20;;;;;;1698259;29;20207;-76
2022/03/16 06:46:23;;;;;;;49.90;41.17;;;11.80;97.20;;;;;;1697252;29;20201;-76
2022/03/16 06:47:15;;;;;;;54.13;42.95;;;11.80;97.20;;;;;;1698185;29;20451;-76
2022/03/16 06:48:06;;;;;;;49.13;41.38;;;11.80;97.20;;;;;;1697761;29;20237;-76
2022/03/16 06:48:57;;;;;;;50.78;41.38;;;11.80;97.20;;;;;;1697003;29;20588;-77
2022/03/16 06:49:49;;;;;;;47.53;41.50;;;11.80;97.20;;;;;;1697651;29;20229;-78
2022/03/16 06:50:40;;;;;;;48.53;40.67;;;11.80;97.20;;;;;;1695990;29;20219;-77
2022/03/16 06:51:31;;;;;;;52.20;42.10;;;11.80;97.20;;;;;;1697933;29;20205;-81
2022/03/16 06:52:22;;;;;;;56.75;42.65;;;11.80;97.20;;;;;;1696806;29;20811;-76
2022/03/16 06:53:14;;;;;;;50.00;41.27;;;11.80;97.20;;;;;;1697621;29;20418;-77
2022/03/16 06:54:04;;;;;;;51.50;41.97;;;11.80;97.20;;;;;;1696504;29;20792;-77
2022/03/16 06:54:56;;;;;;;51.53;42.03;;;11.80;97.20;;;;;;1697098;29;20641;-77
2022/03/16 06:55:47;;;;;;;52.83;42.03;;;11.80;97.20;;;;;;1697423;29;20576;-77
2022/03/16 06:56:39;;;;;;;50.80;41.77;;;11.80;97.20;;;;;;1698700;29;20195;-77
2022/03/16 06:57:29;;;;;;;48.28;42.85;;;11.80;97.20;;;;;;1697080;29;20679;-77
2022/03/16 06:58:21;;;;;;;48.67;40.67;;;11.80;97.20;;;;;;1698058;29;20195;-77
2022/03/16 06:59:13;;;;;;;53.22;43.10;;;11.80;97.20;;;;;;1698612;29;20203;-77
2022/03/16 07:00:07;;;;;;;48.47;41.63;;;11.70;97.20;;;;;;1698537;29;20207;-77
2022/03/16 07:00:58;;;;;;;50.42;42.17;;;11.80;97.20;;;;;;1697837;29;20235;-77
2022/03/16 07:01:50;;;;;;;48.37;40.40;;;11.80;97.20;;;;;;1698189;29;20203;-77
2022/03/16 07:02:53;;;;;;;49.45;41.05;;;11.80;97.20;;;;;;1699130;29;20222;-77
2022/03/16 07:03:45;;;;;;;57.88;43.03;;;11.80;97.20;;;;;;1698235;29;20204;-77
2022/03/16 07:04:36;;;;;;;49.10;42.13;;;11.70;97.20;;;;;;1698168;29;20238;-77
2022/03/16 07:05:29;;;;;;;51.10;42.63;;;11.70;97.20;;;;;;1698661;29;20229;-77
2022/03/16 07:06:21;;;;;;;46.78;40.85;;;11.70;97.20;;;;;;1698498;29;20199;-77
2022/03/16 07:07:11;;;;;;;50.45;40.80;;;11.70;97.20;;;;;;1698579;29;20619;-77
2022/03/16 07:08:06;;;;;;;52.50;42.93;;;11.70;97.20;;;;;;1698275;29;20584;-77
2022/03/16 07:08:57;;;;;;;48.50;41.63;;;11.70;97.20;;;;;;1698705;29;20211;-77
2022/03/16 07:09:49;;;;;;;51.13;42.63;;;11.70;97.20;;;;;;1698443;29;20206;-77
2022/03/16 07:10:42;;;;;;;52.63;42.17;;;11.70;97.20;;;;;;1698525;29;20975;-77
2022/03/16 07:11:33;;;;;;;49.45;40.33;;;11.70;97.20;;;;;;1697808;29;20250;-76
2022/03/16 07:12:28;;;;;;;48.53;40.75;;;11.70;97.20;;;;;;1698745;29;20222;-77
2022/03/16 07:13:19;;;;;;;50.67;40.55;;;11.70;97.20;;;;;;1698110;29;20254;-77
2022/03/16 07:15:24;;;;;;;48.22;39.50;;;11.70;97.20;;;;;;1696636;29;20262;-77
2022/03/16 07:16:14;;;;;;;47.08;39.25;;;11.70;97.20;;;;;;1698434;29;20682;-76
2022/03/16 07:17:06;;;;;;;47.80;39.30;;;11.80;97.20;;;;;;1698536;29;20641;-77
2022/03/16 07:18:02;;;;;;;46.55;40.30;;;11.80;97.20;;;;;;1698158;29;20246;-76
2022/03/16 07:18:52;;;;;;;54.15;41.20;;;11.80;97.20;;;;;;1698510;29;20590;-76
2022/03/16 07:19:44;;;;;;;49.20;40.27;;;11.80;97.20;;;;;;1698182;29;20230;-76
2022/03/16 07:20:35;;;;;;;49.53;40.92;;;11.80;97.20;;;;;;1698317;29;20668;-76
2022/03/16 07:21:27;;;;;;;72.25;44.38;;;11.80;97.20;;;;;;1698613;29;20195;-76
2022/03/16 07:22:18;;;;;;;50.97;42.33;;;11.80;97.20;;;;;;1699220;29;20231;-77
2022/03/16 07:23:11;;;;;;;50.53;40.97;;;11.80;97.20;;;;;;1699668;29;20211;-77
2022/03/16 07:24:02;;;;;;;58.08;44.00;;;11.90;97.20;;;;;;1699651;29;20254;-76
2022/03/16 07:24:54;;;;;;;57.00;43.73;;;11.80;97.20;;;;;;1699824;29;20207;-77
2022/03/16 07:25:46;;;;;;;55.40;44.35;;;11.80;97.20;;;;;;1699799;29;20211;-76
2022/03/16 07:26:39;;;;;;;61.03;45.20;;;11.80;97.20;;;;;;1699981;29;20203;-77
2022/03/16 07:27:29;;;;;;;56.67;44.00;;;11.80;97.20;;;;;;1699400;29;20261;-76
2022/03/16 07:28:21;;;;;;;53.37;43.47;;;11.80;97.20;;;;;;1699449;29;20227;-76
2022/03/16 07:29:12;;;;;;;52.65;43.10;;;11.80;97.20;;;;;;1699732;29;20254;-77
2022/03/16 07:30:06;;;;;;;52.90;42.83;;;11.80;97.20;;;;;;1700144;29;20254;-77
2022/03/16 07:30:58;;;;;;;55.25;42.10;;;11.80;97.20;;;;;;1699435;29;20227;-76
2022/03/16 07:31:48;;;;;;;51.70;41.10;;;11.80;97.20;;;;;;1699921;29;20216;-76
2022/03/16 07:32:40;;;;;;;64.90;41.73;;;11.80;97.20;;;;;;1699853;29;20223;-76
2022/03/16 07:33:33;;;;;;;52.22;41.65;;;11.70;97.20;;;;;;1700210;29;20251;-77
2022/03/16 07:34:26;;;;;;;50.45;41.55;;;11.70;97.20;;;;;;1699970;29;20321;-76
2022/03/16 07:35:17;;;;;;;46.80;38.90;;;11.70;97.20;;;;;;1699909;29;20242;-76
2022/03/16 07:36:09;;;;;;;47.50;38.87;;;11.70;97.20;;;;;;1699830;29;20678;-76
2022/03/16 07:36:59;;;;;;;49.55;39.38;;;11.70;97.20;;;;;;1699384;29;20795;-77
2022/03/16 07:37:51;;;;;;;47.57;38.40;;;11.70;97.20;;;;;;1699315;29;20191;-76
2022/03/16 07:38:42;;;;;;;49.78;38.63;;;11.70;97.20;;;;;;1699448;29;20206;-76
2022/03/16 07:39:33;;;;;;;48.07;38.13;;;11.70;97.20;;;;;;1699707;29;20667;-77
2022/03/16 07:40:25;;;;;;;50.95;39.35;;;11.70;97.20;;;;;;1699895;29;20227;-77
2022/03/16 07:41:17;;;;;;;47.70;38.65;;;11.70;97.20;;;;;;1699567;29;20682;-77
2022/03/16 07:42:08;;;;;;;48.30;39.85;;;11.70;97.20;;;;;;1699598;29;20211;-77
2022/03/16 07:42:59;;;;;;;49.97;41.20;;;11.70;97.20;;;;;;1699940;29;20209;-76
2022/03/16 07:43:50;;;;;;;50.17;39.50;;;11.70;97.20;;;;;;1699301;29;20195;-76
2022/03/16 07:44:42;;;;;;;47.00;37.73;;;11.70;97.20;;;;;;1699553;29;20207;-77
2022/03/16 07:45:34;;;;;;;49.40;38.42;;;11.70;97.20;;;;;;1700777;29;20253;-77
2022/03/16 07:46:25;;;;;;;47.72;38.33;;;11.70;97.20;;;;;;1699507;29;21575;-77
2022/03/16 07:47:16;;;;;;;46.23;37.60;;;11.80;97.20;;;;;;1699623;29;20218;-76
2022/03/16 07:48:08;;;;;;;47.13;39.78;;;11.80;97.20;;;;;;1699306;29;20271;-76
2022/03/16 07:49:00;;;;;;;49.55;36.95;;;11.80;97.20;;;;;;1699410;29;20207;-77
2022/03/16 07:49:52;;;;;;;47.47;38.38;;;11.80;97.20;;;;;;1699396;29;20598;-76
2022/03/16 07:50:43;;;;;;;48.20;39.08;;;11.80;97.20;;;;;;1699291;29;20967;-76
2022/03/16 07:51:35;;;;;;;46.53;38.47;;;11.80;97.20;;;;;;1700272;29;20226;-77
2022/03/16 07:52:25;;;;;;;48.65;37.90;;;11.80;97.20;;;;;;1699697;29;20246;-77
2022/03/16 07:53:17;;;;;;;47.90;39.23;;;11.80;97.20;;;;;;1699772;29;20199;-76
2022/03/16 07:54:08;;;;;;;46.70;38.10;;;11.80;97.20;;;;;;1699445;29;20490;-76
2022/03/16 07:55:00;;;;;;;45.77;37.73;;;11.80;97.20;;;;;;1699000;29;20232;-77
2022/03/16 07:55:55;;;;;;;45.38;39.47;;;11.80;97.20;;;;;;1699283;29;20211;-77
2022/03/16 07:56:47;;;;;;;47.67;38.28;;;11.80;97.20;;;;;;1699329;29;20200;-77
2022/03/16 07:57:38;;;;;;;47.47;38.20;;;11.90;97.20;;;;;;1699461;29;20278;-77
2022/03/16 07:58:29;;;;;;;48.47;38.80;;;11.90;97.20;;;;;;1699193;29;20210;-76
2022/03/16 07:59:20;;;;;;;50.28;38.60;;;11.90;97.20;;;;;;1699541;29;20246;-77
2022/03/16 08:00:13;;;;;;;45.40;36.80;;;11.80;97.20;;;;;;1699468;29;20204;-77
2022/03/16 08:01:05;;;;;;;48.85;39.33;;;11.80;97.20;;;;;;1699649;29;20542;-77
2022/03/16 08:01:56;;;;;;;46.30;38.70;;;11.80;97.20;;;;;;1699581;29;20203;-77
2022/03/16 08:02:47;;;;;;;46.88;38.60;;;11.80;97.20;;;;;;1699541;29;21054;-77
2022/03/16 08:03:39;;;;;;;49.63;39.13;;;11.80;97.20;;;;;;1699546;29;20566;-76
2022/03/16 08:04:31;;;;;;;50.15;39.13;;;11.80;97.20;;;;;;1699670;29;20239;-77
2022/03/16 08:05:23;;;;;;;49.92;37.92;;;11.90;97.20;;;;;;1699420;29;20211;-76
2022/03/16 08:06:14;;;;;;;45.47;37.72;;;11.90;97.20;;;;;;1699481;29;20503;-76
2022/03/16 08:07:07;;;;;;;48.47;37.43;;;11.90;97.20;;;;;;1699639;29;20259;-77
2022/03/16 08:07:58;;;;;;;47.85;39.35;;;11.90;97.20;;;;;;1699540;29;20199;-77
2022/03/16 08:08:49;;;;;;;47.83;39.80;;;11.90;97.20;;;;;;1699154;29;20249;-76
2022/03/16 08:09:40;;;;;;;49.17;41.67;;;11.90;97.20;;;;;;1699783;29;20203;-77
2022/03/16 08:10:32;;;;;;;50.77;40.97;;;11.90;97.20;;;;;;1700107;29;20199;-76
2022/03/16 08:11:23;;;;;;;47.50;40.45;;;11.90;97.20;;;;;;1700416;29;20663;-77
2022/03/16 08:12:16;;;;;;;47.57;39.30;;;11.90;97.20;;;;;;1699620;29;20561;-77
2022/03/16 08:13:07;;;;;;;45.20;38.65;;;11.90;97.20;;;;;;1699003;29;20734;-76
2022/03/16 08:13:58;;;;;;;46.97;38.00;;;12.00;97.20;;;;;;1699264;29;20618;-76
2022/03/16 08:14:50;;;;;;;47.53;38.72;;;12.00;97.20;;;;;;1699531;29;20211;-76
2022/03/16 08:15:42;;;;;;;47.30;38.47;;;12.00;97.20;;;;;;1699169;29;20207;-76
2022/03/16 08:16:33;;;;;;;51.65;39.13;;;12.00;97.20;;;;;;1699403;29;20207;-76
2022/03/16 08:17:25;;;;;;;48.70;39.87;;;12.00;97.20;;;;;;1699331;29;20199;-76
2022/03/16 08:18:15;;;;;;;51.20;37.85;;;12.00;97.20;;;;;;1698987;29;20250;-77
2022/03/16 08:19:07;;;;;;;51.93;39.27;;;12.00;97.20;;;;;;1700074;29;20204;-76
2022/03/16 08:19:59;;;;;;;59.38;40.05;;;12.10;97.20;;;;;;1699669;29;20316;-76
2022/03/16 08:20:51;;;;;;;46.40;38.22;;;12.10;97.20;;;;;;1699380;29;20253;-76
2022/03/16 08:21:42;;;;;;;50.50;38.83;;;12.10;97.20;;;;;;1699330;29;20579;-76
2022/03/16 08:22:36;;;;;;;49.77;37.50;;;12.00;97.20;;;;;;1699338;29;20203;-76
2022/03/16 08:23:27;;;;;;;48.00;37.95;;;12.10;97.20;;;;;;1699426;29;20196;-77
2022/03/16 08:24:18;;;;;;;45.17;36.13;;;12.10;97.20;;;;;;1699380;29;20233;-76
2022/03/16 08:25:11;;;;;;;47.95;37.00;;;12.10;97.20;;;;;;1699627;29;20211;-76
2022/03/16 08:26:03;;;;;;;51.00;39.17;;;12.10;97.20;;;;;;1699464;29;20199;-77
2022/03/16 08:26:53;;;;;;;45.17;37.20;;;12.10;97.20;;;;;;1699486;29;20207;-76
2022/03/16 08:27:45;;;;;;;42.73;37.37;;;12.10;97.20;;;;;;1699539;29;20202;-76
2022/03/16 08:28:36;;;;;;;44.00;38.08;;;12.10;97.20;;;;;;1700266;29;20591;-76
2022/03/16 08:29:28;;;;;;;45.57;37.07;;;12.10;97.20;;;;;;1700265;29;20191;-76
2022/03/16 08:30:18;;;;;;;44.22;36.55;;;12.10;97.20;;;;;;1699723;29;20203;-76
2022/03/16 08:31:11;;;;;;;47.53;37.50;;;12.10;97.20;;;;;;1700337;29;20206;-77
2022/03/16 08:32:03;;;;;;;42.92;37.00;;;12.10;97.20;;;;;;1700072;29;20258;-76
2022/03/16 08:32:55;;;;;;;45.88;36.55;;;12.10;97.20;;;;;;1700104;29;20224;-76
2022/03/16 08:33:48;;;;;;;45.25;35.42;;;12.10;97.20;;;;;;1699082;29;20663;-76
2022/03/16 08:34:39;;;;;;;41.53;35.17;;;12.10;97.20;;;;;;1699778;29;20195;-76
2022/03/16 08:35:32;;;;;;;44.22;35.47;;;12.10;97.20;;;;;;1699621;29;20234;-76
2022/03/16 08:36:23;;;;;;;42.83;34.70;;;12.10;97.20;;;;;;1699586;29;20231;-77
2022/03/16 08:37:14;;;;;;;38.75;33.58;;;12.10;97.20;;;;;;1700508;29;20227;-76
2022/03/16 08:38:06;;;;;;;39.30;34.73;;;12.10;97.20;;;;;;1699610;29;20202;-76
2022/03/16 08:39:00;;;;;;;39.30;34.70;;;12.10;97.20;;;;;;1699676;29;20454;-76
2022/03/16 08:39:51;;;;;;;40.45;35.15;;;12.10;97.20;;;;;;1699693;29;20206;-76
2022/03/16 08:40:42;;;;;;;45.37;34.70;;;12.10;97.20;;;;;;1700090;29;20287;-77
2022/03/16 08:41:33;;;;;;;41.88;33.25;;;12.10;97.20;;;;;;1699544;29;20235;-76
2022/03/16 08:42:25;;;;;;;41.17;36.20;;;12.10;97.20;;;;;;1699780;29;20202;-76
2022/03/16 08:43:16;;;;;;;38.50;34.35;;;12.10;97.20;;;;;;1699590;29;20451;-77
2022/03/16 08:44:08;;;;;;;38.87;33.13;;;12.10;97.20;;;;;;1699779;29;20219;-76
2022/03/16 08:44:58;;;;;;;39.30;33.28;;;12.10;97.20;;;;;;1699739;29;20784;-76
2022/03/16 08:45:50;;;;;;;39.90;33.43;;;12.10;97.20;;;;;;1700089;29;20618;-76
2022/03/16 08:46:41;;;;;;;40.03;35.13;;;12.10;97.20;;;;;;1700214;29;20223;-76
2022/03/16 08:47:33;;;;;;;37.67;33.57;;;12.10;97.20;;;;;;1699642;29;20212;-76
2022/03/16 08:48:23;;;;;;;36.10;32.20;;;12.10;97.20;;;;;;1699507;29;20705;-76
2022/03/16 08:49:16;;;;;;;36.43;32.50;;;12.10;97.20;;;;;;1699395;29;20589;-76
2022/03/16 08:50:08;;;;;;;37.55;32.42;;;12.10;97.20;;;;;;1699244;29;20351;-76
2022/03/16 08:51:01;;;;;;;37.20;33.20;;;12.20;97.20;;;;;;1699280;29;20199;-76
2022/03/16 08:51:52;;;;;;;35.58;31.23;;;12.10;97.20;;;;;;1699555;29;20246;-76
2022/03/16 08:52:44;;;;;;;37.53;33.43;;;12.20;97.20;;;;;;1699611;29;20202;-77
2022/03/16 08:53:36;;;;;;;35.88;31.77;;;12.20;97.20;;;;;;1699605;29;20211;-76
2022/03/16 08:54:28;;;;;;;36.55;32.63;;;12.20;97.20;;;;;;1699695;29;20200;-76
2022/03/16 08:55:19;;;;;;;35.92;31.80;;;12.20;97.20;;;;;;1700364;29;20266;-76
2022/03/16 08:56:11;;;;;;;35.30;30.57;;;12.20;97.20;;;;;;1700315;29;20282;-77
2022/03/16 08:57:03;;;;;;;35.55;31.27;;;12.20;97.20;;;;;;1700701;29;20218;-76
2022/03/16 08:57:55;;;;;;;37.20;33.17;;;12.20;97.20;;;;;;1699404;29;20954;-76
2022/03/16 08:58:45;;;;;;;36.67;31.17;;;12.20;97.20;;;;;;1699577;29;20207;-76
2022/03/16 08:59:38;;;;;;;36.23;32.00;;;12.20;97.20;;;;;;1699705;29;20200;-76
2022/03/16 09:00:28;;;;;;;39.42;31.02;;;12.20;97.20;;;;;;1699579;29;20200;-76
2022/03/16 09:01:20;;;;;;;35.40;31.60;;;12.20;97.20;;;;;;1699516;29;20207;-76
2022/03/16 09:02:11;;;;;;;36.00;32.10;;;12.20;97.20;;;;;;1699467;29;20199;-76
2022/03/16 09:03:03;;;;;;;36.53;32.73;;;12.20;97.20;;;;;;1699395;29;20210;-76
2022/03/16 09:03:54;;;;;;;37.42;31.30;;;12.20;97.20;;;;;;1699121;29;20643;-77
2022/03/16 09:04:45;;;;;;;34.80;31.03;;;12.20;97.20;;;;;;1699513;29;20615;-76
2022/03/16 09:05:36;;;;;;;39.20;31.77;;;12.20;97.20;;;;;;1699384;29;20298;-76
2022/03/16 09:06:29;;;;;;;34.83;31.13;;;12.20;97.20;;;;;;1698935;29;20207;-77
2022/03/16 09:07:21;;;;;;;34.42;30.77;;;12.20;97.20;;;;;;1699313;29;20211;-76
2022/03/16 09:08:13;;;;;;;36.63;32.35;;;12.20;97.20;;;;;;1698864;29;20199;-76
2022/03/16 09:09:03;;;;;;;35.65;31.85;;;12.20;97.20;;;;;;1699022;29;20204;-76
2022/03/16 09:09:55;;;;;;;38.17;32.90;;;12.20;97.20;;;;;;1699354;29;20203;-76
2022/03/16 09:10:47;;;;;;;35.03;31.23;;;12.20;97.20;;;;;;1699239;29;20203;-77
2022/03/16 09:11:39;;;;;;;36.17;32.47;;;12.20;97.20;;;;;;1698852;29;20621;-76
2022/03/16 09:12:30;;;;;;;33.13;29.60;;;12.20;97.20;;;;;;1699218;29;20241;-76
2022/03/16 09:13:22;;;;;;;33.80;30.07;;;12.20;97.20;;;;;;1699200;29;20230;-76
2022/03/16 09:14:12;;;;;;;33.97;30.35;;;12.20;97.20;;;;;;1699168;29;20694;-76
2022/03/16 09:15:05;;;;;;;31.80;28.40;;;12.20;97.20;;;;;;1699310;29;20199;-76
2022/03/16 09:16:01;;;;;;;33.08;29.15;;;12.20;97.20;;;;;;1699225;29;20195;-76
2022/03/16 09:16:53;;;;;;;34.55;30.70;;;12.20;97.20;;;;;;1699030;29;20195;-76
2022/03/16 09:17:43;;;;;;;34.58;30.83;;;12.20;97.20;;;;;;1698867;29;20203;-77
2022/03/16 09:18:35;;;;;;;32.80;29.27;;;12.20;97.20;;;;;;1699128;29;20210;-77
2022/03/16 09:19:26;;;;;;;36.72;29.83;;;12.20;97.20;;;;;;1698931;29;20237;-76
2022/03/16 09:20:18;;;;;;;33.87;30.37;;;12.20;97.20;;;;;;1699245;29;20286;-76
2022/03/16 09:21:08;;;;;;;35.40;30.70;;;12.20;97.20;;;;;;1698914;29;20203;-77
2022/03/16 09:22:02;;;;;;;34.13;30.43;;;12.20;97.20;;;;;;1699273;29;20539;-76
2022/03/16 09:22:54;;;;;;;34.35;30.85;;;12.20;97.20;;;;;;1699113;29;20251;-76
2022/03/16 09:23:45;;;;;;;35.80;31.92;;;12.20;97.20;;;;;;1699136;29;20231;-77
2022/03/16 09:24:38;;;;;;;34.23;30.70;;;12.20;97.20;;;;;;1698865;29;20693;-76
2022/03/16 09:25:29;;;;;;;34.00;30.38;;;12.30;97.20;;;;;;1699018;29;20203;-76
2022/03/16 09:26:21;;;;;;;35.50;30.23;;;12.30;97.20;;;;;;1699213;29;21022;-76
2022/03/16 09:27:12;;;;;;;36.20;32.20;;;12.30;97.20;;;;;;1699585;29;20447;-76
2022/03/16 09:28:04;;;;;;;36.73;30.97;;;12.30;97.20;;;;;;1698622;29;20197;-76
2022/03/16 09:28:55;;;;;;;40.15;33.13;;;12.30;97.20;;;;;;1699204;29;20483;-76
2022/03/16 09:29:47;;;;;;;34.08;30.55;;;12.20;97.20;;;;;;1699069;29;20231;-77
2022/03/16 09:30:38;;;;;;;33.20;29.02;;;12.20;97.20;;;;;;1700019;29;20861;-76
2022/03/16 09:31:29;;;;;;;33.00;29.47;;;12.20;97.20;;;;;;1698956;29;20572;-77
2022/03/16 09:32:21;;;;;;;34.00;30.52;;;12.20;97.20;;;;;;1699236;29;20491;-76
2022/03/16 09:33:13;;;;;;;33.13;28.85;;;12.20;97.20;;;;;;1698909;29;20316;-76
2022/03/16 09:34:05;;;;;;;34.30;30.38;;;12.30;97.20;;;;;;1698664;29;20719;-76
2022/03/16 09:34:59;;;;;;;35.05;31.08;;;12.20;97.20;;;;;;1698660;29;20577;-77
2022/03/16 09:35:51;;;;;;;33.90;29.02;;;12.30;97.20;;;;;;1699294;29;20571;-76
2022/03/16 09:36:45;;;;;;;33.22;29.60;;;12.30;97.20;;;;;;1698591;29;20195;-76
2022/03/16 09:37:40;;;;;;;31.50;28.15;;;12.30;97.20;;;;;;1698767;29;20290;-76
2022/03/16 09:38:30;;;;;;;32.40;29.00;;;12.30;97.20;;;;;;1698546;29;20747;-76
2022/03/16 09:39:22;;;;;;;31.23;27.97;;;12.30;97.20;;;;;;1698338;29;20617;-76
2022/03/16 09:40:13;;;;;;;31.67;28.48;;;12.30;97.20;;;;;;1698964;29;20962;-77
2022/03/16 09:41:05;;;;;;;30.67;27.40;;;12.30;97.20;;;;;;1700361;29;20667;-76
2022/03/16 09:41:56;;;;;;;30.50;27.40;;;12.30;97.20;;;;;;1698884;29;20237;-76
2022/03/16 09:42:48;;;;;;;30.20;26.87;;;12.30;97.20;;;;;;1699011;29;20223;-77
2022/03/16 09:43:40;;;;;;;31.30;27.95;;;12.30;97.20;;;;;;1698823;29;20587;-77
2022/03/16 09:44:32;;;;;;;31.40;28.30;;;12.30;97.20;;;;;;1698725;29;20198;-76
2022/03/16 09:45:30;;;;;;;30.50;27.30;;;12.30;97.20;;;;;;1699016;29;20586;-76
2022/03/16 09:46:24;;;;;;;30.45;27.30;;;12.30;97.20;;;;;;1699104;29;20238;-76
2022/03/16 09:47:17;;;;;;;31.38;28.20;;;12.30;97.20;;;;;;1698744;29;20211;-77
2022/03/16 09:48:08;;;;;;;29.80;26.90;;;12.30;97.20;;;;;;1698638;29;20203;-76
2022/03/16 09:49:00;;;;;;;31.60;28.30;;;12.30;97.20;;;;;;1699064;29;20199;-77
2022/03/16 09:49:54;;;;;;;31.75;27.55;;;12.40;97.20;;;;;;1699094;29;20214;-77
2022/03/16 09:50:45;;;;;;;31.02;26.38;;;12.40;97.20;;;;;;1698623;29;20203;-76
2022/03/16 09:51:38;;;;;;;31.52;28.42;;;12.40;97.20;;;;;;1699026;29;20199;-77
2022/03/16 09:52:29;;;;;;;29.48;26.30;;;12.40;97.20;;;;;;1698779;29;20207;-76
2022/03/16 09:53:23;;;;;;;30.95;27.73;;;12.40;97.20;;;;;;1698881;29;20337;-76
2022/03/16 09:54:15;;;;;;;30.65;27.48;;;12.40;97.20;;;;;;1698615;29;20216;-76
2022/03/16 09:55:08;;;;;;;31.48;28.08;;;12.40;97.20;;;;;;1698979;29;20209;-76
2022/03/16 09:55:59;;;;;;;29.50;26.50;;;12.50;97.20;;;;;;1698804;29;20218;-77
2022/03/16 09:56:52;;;;;;;31.70;28.50;;;12.50;97.20;;;;;;1698728;29;20215;-76
2022/03/16 09:57:43;;;;;;;29.65;26.45;;;12.50;97.20;;;;;;1698833;29;20463;-77
2022/03/16 09:58:35;;;;;;;29.73;26.80;;;12.50;97.20;;;;;;1699402;29;20199;-76
2022/03/16 09:59:26;;;;;;;29.08;25.98;;;12.50;97.20;;;;;;1699006;29;20611;-76
2022/03/16 10:00:18;;;;;;;31.77;28.10;;;12.60;97.20;;;;;;1699147;29;20218;-76
2022/03/16 10:01:09;;;;;;;29.60;26.58;;;12.60;97.20;;;;;;1698770;29;20592;-77
2022/03/16 10:02:06;;;;;;;27.97;25.10;;;12.60;97.20;;;;;;1698804;29;20573;-76
2022/03/16 10:02:59;;;;;;;30.52;26.75;;;12.60;97.20;;;;;;1698659;29;20211;-76
2022/03/16 10:03:52;;;;;;;29.35;24.80;;;12.60;97.20;;;;;;1698730;29;20199;-76
2022/03/16 10:04:46;;;;;;;28.80;25.77;;;12.60;97.20;;;;;;1698484;29;20199;-76
2022/03/16 10:05:38;;;;;;;28.50;25.70;;;12.60;97.20;;;;;;1698943;29;20203;-76
2022/03/16 10:06:28;;;;;;;28.90;26.10;;;12.70;97.20;;;;;;1698621;29;20681;-76
2022/03/16 10:07:27;;;;;;;28.80;25.40;;;12.70;97.20;;;;;;1698693;29;20690;-76
2022/03/16 10:08:27;;;;;;;29.50;26.40;;;12.70;97.20;;;;;;1697221;29;20297;-77
2022/03/16 10:14:08;;;;;;;28.13;25.23;;;12.70;97.20;;;;;;1698698;29;20656;-76
2022/03/16 10:15:04;;;;;;;27.60;24.73;;;12.70;97.20;;;;;;1698926;29;20218;-77
2022/03/16 10:16:10;;;;;;;29.25;24.35;;;12.70;97.20;;;;;;1698791;29;20562;-76
2022/03/16 10:18:16;;;;;;;27.60;24.65;;;12.70;97.20;;;;;;1698172;29;20682;-76
2022/03/16 10:19:09;;;;;;;28.50;25.63;;;12.70;97.20;;;;;;1698687;29;20211;-76
2022/03/16 10:20:02;;;;;;;26.85;24.00;;;12.70;97.20;;;;;;1698866;29;20562;-76
2022/03/16 10:20:57;;;;;;;27.52;24.70;;;12.70;97.20;;;;;;1698404;29;20431;-77
2022/03/16 10:21:57;;;;;;;27.75;24.92;;;12.70;97.20;;;;;;1698582;29;20690;-77
2022/03/16 10:22:57;;;;;;;26.92;23.90;;;12.70;97.20;;;;;;1698491;29;20250;-76
2022/03/16 10:23:51;;;;;;;29.52;24.95;;;12.70;97.20;;;;;;1698806;29;20260;-76
2022/03/16 10:24:42;;;;;;;29.38;24.75;;;12.70;97.20;;;;;;1698470;29;20203;-76
2022/03/16 10:25:36;;;;;;;29.80;25.50;;;12.70;97.20;;;;;;1699108;29;20200;-77
2022/03/16 10:26:27;;;;;;;27.38;24.58;;;12.80;97.20;;;;;;1699083;29;20771;-77
2022/03/16 10:27:19;;;;;;;28.40;25.50;;;12.80;97.20;;;;;;1698516;29;20274;-77
2022/03/16 10:28:12;;;;;;;29.48;24.20;;;12.80;97.20;;;;;;1698480;29;20202;-76
2022/03/16 10:29:05;;;;;;;27.88;24.83;;;12.90;97.20;;;;;;1698579;29;20746;-77
2022/03/16 10:29:57;;;;;;;27.60;24.58;;;12.90;97.20;;;;;;1698876;29;20203;-76
2022/03/16 10:30:58;;;;;;;26.42;23.38;;;13.00;97.20;;;;;;1698597;29;20203;-76
2022/03/16 10:31:59;;;;;;;27.00;24.23;;;13.00;97.20;;;;;;1698835;29;20226;-76